Hlavní strana
METAR-TAF:

METAR-TAF

Letiště :

Carmi Municipal Airport

Carmi, Illinois, Spojené státy americké

zeměpisná šířka: 38-05-22N, zeměpisná délka: 088-07-23W, výška: 118 m

Aktuální stav počasí

Zpráva byla vytvořena před 41 minutami, v 01:57 UTC
Východní vítr 6 kt
Teplota 6°C
Vlhkost vzduchu 81%
Tlak 1022 hPa
Viditelnost: 16.1 km
Polojasno ve výšce 1800 ft
Oblačno až skoro zataženo ve výšce 2300 ft
Zataženo ve výšce 5500 ft

METAR: KCUL 230157Z AUTO 08006KT 10SM SCT018 BKN023 OVC055 06/03 A3019 RMK AO2

Čas: 20:38 (02:38 UTC)


TAF: chybějící

Stav a předpovědi počasí z více než 4 000 letišť (zprávy METAR a TAF).

Červené a žluté tečky na mapě představují dostupné meteorologické stanice.

Když kurzor umístíte na tečku, zobrazí se název stanice.

Pak kliknutím zobrazíte stav a předpověď počasí.

Chcete-li změnit mapu, kliknutím na zelené tlačítko se znaménkem +mapu přiblížíte, kliknutím na zelené tlačítko se znaménkem – mapu oddálíte a kliknutím na zelené šipky přejdete na sousední mapy.


METAR-TAF: